Etusivu
METAR-TAF:

METAR-TAF

Lentoasemat :

Ängelholm-Helsingborgin lentoasema

Helsingborg, Ruotsi

Leveyspiiri: 56-17-46N, Pituuspiiri: 012-50-50E, korkeus merenpinnasta: 21 m

Tämänhetkinen sää

Tämä raportti tehtiin 18 minuuttia sitten, kello 22.50 UTC
Tuuli 9 kn idästä/kaakosta
Lämpötila 9°C
Kosteus 93%
Ilmanpaine 1017 hPa
Näkyvyys 10 km tai enemmän

METAR: ESTA 302250Z AUTO 12009KT 9999 OVC006/// 09/08 Q1017

Aika: 00:08 (23:08 UTC)

Sääennuste

Tämä raportti tehtiin 6 tuntia ja 8 minuuttia sitten, kello 17.00 UTC
Ennuste voimassa 30. päivästä klo 18 UTC - 30. päivään klo 20 UTC
Tuuli 10 kn idästä/kaakosta
Näkyvyys: 6000 m
Hajanaisia pilviä 800 ft:n korkeudessa
Ajoittain
30. päivästä klo 18 UTC - 30. päivään klo 20 UTC
Näkyvyys: 3000 m
Hajonneita pilviä 600 ft:n korkeudessa
utua, heikkoa tihkusadetta

TAF: ESTA 301700Z 3018/3020 12010KT 6000 SCT008 TEMPO 3018/3020 3000 BR -DZ BKN006

Säähavainnot ja -ennusteet yli 4000 lentoasemalta (METAR- ja TAF-raportit).

Käytössä olevat sääasemat on merkitty karttaan keltaisilla ja punaisilla pisteillä.

Aseta hiiri pisteen päälle nähdäksesi sääaseman nimen.

Klikkaa sitten nähdäksesi säähavainnot ja -ennusteet.

Kartan vaihtaminen: klikkaa mustalla rastilla varustettuja vihreitä pisteitä, niin voit zoomata sisään; viivalla varustettua vihreää pistettä, niin voit zoomata ulos tai vihreitä nuolia, niin pääset viereisille kartoille.


METAR-TAF: